sensor_id;sensor_type;location;lat;lon;timestamp;pressure;altitude;pressure_sealevel;temperature;humidity
44734;BME280;30462;52.446;-1.930;2022-08-07T00:00:18;101441.0547;;;;
44734;BME280;30462;52.446;-1.930;2022-08-07T00:01:19;101440.3359;;;;
44734;BME280;30462;52.446;-1.930;2022-08-07T00:02:18;101436.1406;;;;
44734;BME280;30462;52.446;-1.930;2022-08-07T00:03:18;101433.7109;;;;
44734;BME280;30462;52.446;-1.930;2022-08-07T00:04:18;101434.7773;;;;
44734;BME280;30462;52.446;-1.930;2022-08-07T00:05:18;101436.7422;;;;
44734;BME280;30462;52.446;-1.930;2022-08-07T00:06:17;101434.5547;;;;
44734;BME280;30462;52.446;-1.930;2022-08-07T00:07:18;101435.9688;;;;
44734;BME280;30462;52.446;-1.930;2022-08-07T00:08:18;101438.2539;;;;
44734;BME280;30462;52.446;-1.930;2022-08-07T00:09:18;101437.0313;;;;
44734;BME280;30462;52.446;-1.930;2022-08-07T00:10:18;101438.0391;;;;
44734;BME280;30462;52.446;-1.930;2022-08-07T00:11:18;101441.5703;;;;
44734;BME280;30462;52.446;-1.930;2022-08-07T00:12:18;101441.2383;;;;
44734;BME280;30462;52.446;-1.930;2022-08-07T00:13:19;101439.1563;;;;
44734;BME280;30462;52.446;-1.930;2022-08-07T00:14:18;101439.2617;;;;
44734;BME280;30462;52.446;-1.930;2022-08-07T00:15:18;101437.4453;;;;
44734;BME280;30462;52.446;-1.930;2022-08-07T00:16:18;101435.0234;;;;
44734;BME280;30462;52.446;-1.930;2022-08-07T00:17:18;101434.8047;;;;
44734;BME280;30462;52.446;-1.930;2022-08-07T00:18:19;101432.043;;;;
44734;BME280;30462;52.446;-1.930;2022-08-07T00:19:18;101428.9883;;;;
44734;BME280;30462;52.446;-1.930;2022-08-07T00:20:18;101431.0898;;;;
44734;BME280;30462;52.446;-1.930;2022-08-07T00:21:18;101430.2031;;;;
44734;BME280;30462;52.446;-1.930;2022-08-07T00:22:18;101430.8086;;;;
44734;BME280;30462;52.446;-1.930;2022-08-07T00:23:18;101433.7969;;;;
44734;BME280;30462;52.446;-1.930;2022-08-07T00:24:18;101433.4688;;;;
44734;BME280;30462;52.446;-1.930;2022-08-07T00:25:18;101436.1758;;;;
44734;BME280;30462;52.446;-1.930;2022-08-07T00:26:18;101435.0234;;;;
44734;BME280;30462;52.446;-1.930;2022-08-07T00:27:18;101435.4063;;;;
44734;BME280;30462;52.446;-1.930;2022-08-07T00:28:18;101437.8359;;;;
44734;BME280;30462;52.446;-1.930;2022-08-07T00:29:18;101433.3633;;;;
44734;BME280;30462;52.446;-1.930;2022-08-07T00:30:18;101435.5781;;;;
44734;BME280;30462;52.446;-1.930;2022-08-07T00:31:18;101435.5273;;;;
44734;BME280;30462;52.446;-1.930;2022-08-07T00:32:18;101430.9883;;;;
44734;BME280;30462;52.446;-1.930;2022-08-07T00:33:18;101432.5859;;;;
44734;BME280;30462;52.446;-1.930;2022-08-07T00:34:18;101432.7656;;;;
44734;BME280;30462;52.446;-1.930;2022-08-07T00:35:18;101430.5156;;;;
44734;BME280;30462;52.446;-1.930;2022-08-07T00:36:18;101431.3359;;;;
44734;BME280;30462;52.446;-1.930;2022-08-07T00:37:17;101430.6758;;;;
44734;BME280;30462;52.446;-1.930;2022-08-07T00:38:18;101431.5039;;;;
44734;BME280;30462;52.446;-1.930;2022-08-07T00:39:18;101429.1289;;;;
44734;BME280;30462;52.446;-1.930;2022-08-07T00:40:18;101429.8398;;;;
44734;BME280;30462;52.446;-1.930;2022-08-07T00:42:18;101434.2773;;;;
44734;BME280;30462;52.446;-1.930;2022-08-07T00:43:17;101431.7344;;;;
44734;BME280;30462;52.446;-1.930;2022-08-07T00:44:18;101428.2578;;;;
44734;BME280;30462;52.446;-1.930;2022-08-07T00:45:18;101427.9297;;;;
44734;BME280;30462;52.446;-1.930;2022-08-07T00:46:18;101426.1016;;;;
44734;BME280;30462;52.446;-1.930;2022-08-07T00:47:18;101427.9961;;;;
44734;BME280;30462;52.446;-1.930;2022-08-07T00:48:18;101425.7734;;;;
44734;BME280;30462;52.446;-1.930;2022-08-07T00:49:17;101423.3594;;;;
44734;BME280;30462;52.446;-1.930;2022-08-07T00:50:18;101422.6523;;;;
44734;BME280;30462;52.446;-1.930;2022-08-07T00:51:18;101423.1406;;;;
44734;BME280;30462;52.446;-1.930;2022-08-07T00:52:18;101421.543;;;;
44734;BME280;30462;52.446;-1.930;2022-08-07T00:53:18;101421.207;;;;
44734;BME280;30462;52.446;-1.930;2022-08-07T00:54:18;101419.6172;;;;
44734;BME280;30462;52.446;-1.930;2022-08-07T00:55:18;101422.4219;;;;
44734;BME280;30462;52.446;-1.930;2022-08-07T00:56:18;101421.2188;;;;
44734;BME280;30462;52.446;-1.930;2022-08-07T00:57:18;101418.7852;;;;
44734;BME280;30462;52.446;-1.930;2022-08-07T00:58:18;101417.0117;;;;
44734;BME280;30462;52.446;-1.930;2022-08-07T00:59:18;101413.0938;;;;
44734;BME280;30462;52.446;-1.930;2022-08-07T01:00:18;101414.2695;;;;
44734;BME280;30462;52.446;-1.930;2022-08-07T01:01:18;101417.1367;;;;
44734;BME280;30462;52.446;-1.930;2022-08-07T01:02:18;101413.8281;;;;
44734;BME280;30462;52.446;-1.930;2022-08-07T01:03:18;101414.5352;;;;
44734;BME280;30462;52.446;-1.930;2022-08-07T01:04:17;101414.4336;;;;
44734;BME280;30462;52.446;-1.930;2022-08-07T01:05:18;101410.25;;;;
44734;BME280;30462;52.446;-1.930;2022-08-07T01:06:18;101406.9961;;;;
44734;BME280;30462;52.446;-1.930;2022-08-07T01:07:18;101407.9727;;;;
44734;BME280;30462;52.446;-1.930;2022-08-07T01:08:18;101405.7656;;;;
44734;BME280;30462;52.446;-1.930;2022-08-07T01:09:18;101410.5156;;;;
44734;BME280;30462;52.446;-1.930;2022-08-07T01:10:18;101412.5547;;;;
44734;BME280;30462;52.446;-1.930;2022-08-07T01:11:18;101407.0273;;;;
44734;BME280;30462;52.446;-1.930;2022-08-07T01:12:18;101406.9727;;;;
44734;BME280;30462;52.446;-1.930;2022-08-07T01:13:18;101405.5352;;;;
44734;BME280;30462;52.446;-1.930;2022-08-07T01:14:18;101408.8594;;;;
44734;BME280;30462;52.446;-1.930;2022-08-07T01:15:18;101406.9219;;;;
44734;BME280;30462;52.446;-1.930;2022-08-07T01:16:18;101406.3047;;;;
44734;BME280;30462;52.446;-1.930;2022-08-07T01:17:18;101404.5469;;;;
44734;BME280;30462;52.446;-1.930;2022-08-07T01:18:18;101409.8828;;;;
44734;BME280;30462;52.446;-1.930;2022-08-07T01:19:19;101408.3984;;;;
44734;BME280;30462;52.446;-1.930;2022-08-07T01:20:20;101407.2344;;;;
44734;BME280;30462;52.446;-1.930;2022-08-07T01:21:21;101407.4688;;;;
44734;BME280;30462;52.446;-1.930;2022-08-07T01:22:18;101405.3047;;;;
44734;BME280;30462;52.446;-1.930;2022-08-07T01:23:18;101405.3047;;;;
44734;BME280;30462;52.446;-1.930;2022-08-07T01:24:18;101406.2852;;;;
44734;BME280;30462;52.446;-1.930;2022-08-07T01:25:18;101404.9609;;;;
44734;BME280;30462;52.446;-1.930;2022-08-07T01:26:18;101407.5586;;;;
44734;BME280;30462;52.446;-1.930;2022-08-07T01:27:17;101407.5664;;;;
44734;BME280;30462;52.446;-1.930;2022-08-07T01:28:18;101406.9531;;;;
44734;BME280;30462;52.446;-1.930;2022-08-07T01:29:18;101404.7578;;;;
44734;BME280;30462;52.446;-1.930;2022-08-07T01:30:18;101405.6758;;;;
44734;BME280;30462;52.446;-1.930;2022-08-07T01:31:18;101403.8008;;;;
44734;BME280;30462;52.446;-1.930;2022-08-07T01:32:18;101405.8477;;;;
44734;BME280;30462;52.446;-1.930;2022-08-07T01:33:18;101401.6602;;;;
44734;BME280;30462;52.446;-1.930;2022-08-07T01:34:18;101405.9805;;;;
44734;BME280;30462;52.446;-1.930;2022-08-07T01:35:18;101405.0898;;;;
44734;BME280;30462;52.446;-1.930;2022-08-07T01:36:18;101400.3008;;;;
44734;BME280;30462;52.446;-1.930;2022-08-07T01:37:18;101399.1289;;;;
44734;BME280;30462;52.446;-1.930;2022-08-07T01:38:18;101398.3125;;;;
44734;BME280;30462;52.446;-1.930;2022-08-07T01:39:18;101398.0156;;;;
44734;BME280;30462;52.446;-1.930;2022-08-07T01:40:19;101398.0703;;;;
44734;BME280;30462;52.446;-1.930;2022-08-07T01:41:18;101400.3867;;;;
44734;BME280;30462;52.446;-1.930;2022-08-07T01:42:18;101401.3672;;;;
44734;BME280;30462;52.446;-1.930;2022-08-07T01:43:18;101400.707;;;;
44734;BME280;30462;52.446;-1.930;2022-08-07T01:44:18;101398.8242;;;;
44734;BME280;30462;52.446;-1.930;2022-08-07T01:45:18;101397.0586;;;;
44734;BME280;30462;52.446;-1.930;2022-08-07T01:46:18;101398.6094;;;;
44734;BME280;30462;52.446;-1.930;2022-08-07T01:47:18;101395.8281;;;;
44734;BME280;30462;52.446;-1.930;2022-08-07T01:48:18;101396.875;;;;
44734;BME280;30462;52.446;-1.930;2022-08-07T01:49:18;101395.0117;;;;
44734;BME280;30462;52.446;-1.930;2022-08-07T01:50:18;101397.7109;;;;
44734;BME280;30462;52.446;-1.930;2022-08-07T01:51:23;101396.832;;;;
44734;BME280;30462;52.446;-1.930;2022-08-07T01:52:18;101396.9883;;;;
44734;BME280;30462;52.446;-1.930;2022-08-07T01:53:18;101399.4688;;;;
44734;BME280;30462;52.446;-1.930;2022-08-07T01:54:18;101399.4453;;;;
44734;BME280;30462;52.446;-1.930;2022-08-07T01:55:18;101396.8555;;;;
44734;BME280;30462;52.446;-1.930;2022-08-07T01:56:21;101398.9063;;;;
44734;BME280;30462;52.446;-1.930;2022-08-07T01:57:20;101397.2344;;;;
44734;BME280;30462;52.446;-1.930;2022-08-07T01:58:19;101394.4258;;;;
44734;BME280;30462;52.446;-1.930;2022-08-07T01:59:20;101394.4102;;;;
44734;BME280;30462;52.446;-1.930;2022-08-07T02:00:18;101393.3398;;;;
44734;BME280;30462;52.446;-1.930;2022-08-07T02:01:19;101392.8867;;;;
44734;BME280;30462;52.446;-1.930;2022-08-07T02:02:19;101394.1602;;;;
44734;BME280;30462;52.446;-1.930;2022-08-07T02:03:20;101394.082;;;;
44734;BME280;30462;52.446;-1.930;2022-08-07T02:04:23;101391.625;;;;
44734;BME280;30462;52.446;-1.930;2022-08-07T02:05:24;101391.8398;;;;
44734;BME280;30462;52.446;-1.930;2022-08-07T02:06:20;101391.5898;;;;
44734;BME280;30462;52.446;-1.930;2022-08-07T02:07:18;101389.7148;;;;
44734;BME280;30462;52.446;-1.930;2022-08-07T02:08:18;101389.9375;;;;
44734;BME280;30462;52.446;-1.930;2022-08-07T02:09:19;101389.4492;;;;
44734;BME280;30462;52.446;-1.930;2022-08-07T02:10:20;101390.6758;;;;
44734;BME280;30462;52.446;-1.930;2022-08-07T02:11:18;101391.2227;;;;
44734;BME280;30462;52.446;-1.930;2022-08-07T02:12:18;101388.6367;;;;
44734;BME280;30462;52.446;-1.930;2022-08-07T02:13:19;101386.8594;;;;
44734;BME280;30462;52.446;-1.930;2022-08-07T02:14:18;101388.125;;;;
44734;BME280;30462;52.446;-1.930;2022-08-07T02:15:20;101385.8672;;;;
44734;BME280;30462;52.446;-1.930;2022-08-07T02:16:18;101383.8867;;;;
44734;BME280;30462;52.446;-1.930;2022-08-07T02:17:18;101382.5742;;;;
44734;BME280;30462;52.446;-1.930;2022-08-07T02:18:18;101382.6719;;;;
44734;BME280;30462;52.446;-1.930;2022-08-07T02:19:18;101379.1484;;;;
44734;BME280;30462;52.446;-1.930;2022-08-07T02:20:18;101380.0273;;;;
44734;BME280;30462;52.446;-1.930;2022-08-07T02:21:18;101383.2813;;;;
44734;BME280;30462;52.446;-1.930;2022-08-07T02:22:18;101383.5273;;;;
44734;BME280;30462;52.446;-1.930;2022-08-07T02:23:18;101383.6523;;;;
44734;BME280;30462;52.446;-1.930;2022-08-07T02:24:18;101381.3516;;;;
44734;BME280;30462;52.446;-1.930;2022-08-07T02:25:18;101379.1992;;;;
44734;BME280;30462;52.446;-1.930;2022-08-07T02:26:18;101378.8633;;;;
44734;BME280;30462;52.446;-1.930;2022-08-07T02:27:19;101377.0508;;;;
44734;BME280;30462;52.446;-1.930;2022-08-07T02:28:18;101375.0117;;;;
44734;BME280;30462;52.446;-1.930;2022-08-07T02:29:18;101374.6875;;;;
44734;BME280;30462;52.446;-1.930;2022-08-07T02:30:18;101374.6328;;;;
44734;BME280;30462;52.446;-1.930;2022-08-07T02:31:18;101372.4063;;;;
44734;BME280;30462;52.446;-1.930;2022-08-07T02:32:18;101372.9141;;;;
44734;BME280;30462;52.446;-1.930;2022-08-07T02:33:18;101373.3164;;;;
44734;BME280;30462;52.446;-1.930;2022-08-07T02:34:18;101374.332;;;;
44734;BME280;30462;52.446;-1.930;2022-08-07T02:35:18;101372.7734;;;;
44734;BME280;30462;52.446;-1.930;2022-08-07T02:36:18;101371.5195;;;;
44734;BME280;30462;52.446;-1.930;2022-08-07T02:37:18;101374.9727;;;;
44734;BME280;30462;52.446;-1.930;2022-08-07T02:38:18;101373.6055;;;;
44734;BME280;30462;52.446;-1.930;2022-08-07T02:39:18;101377.3359;;;;
44734;BME280;30462;52.446;-1.930;2022-08-07T02:40:18;101372.4336;;;;
44734;BME280;30462;52.446;-1.930;2022-08-07T02:41:18;101370.1992;;;;
44734;BME280;30462;52.446;-1.930;2022-08-07T02:42:18;101367.8945;;;;
44734;BME280;30462;52.446;-1.930;2022-08-07T02:43:18;101368.2148;;;;
44734;BME280;30462;52.446;-1.930;2022-08-07T02:44:18;101368.7695;;;;
44734;BME280;30462;52.446;-1.930;2022-08-07T02:45:18;101367.4922;;;;
44734;BME280;30462;52.446;-1.930;2022-08-07T02:46:18;101370.6289;;;;
44734;BME280;30462;52.446;-1.930;2022-08-07T02:47:17;101370.6992;;;;
44734;BME280;30462;52.446;-1.930;2022-08-07T02:48:18;101370.0781;;;;
44734;BME280;30462;52.446;-1.930;2022-08-07T02:49:18;101370.4727;;;;
44734;BME280;30462;52.446;-1.930;2022-08-07T02:50:18;101367.8359;;;;
44734;BME280;30462;52.446;-1.930;2022-08-07T02:51:18;101371.3477;;;;
44734;BME280;30462;52.446;-1.930;2022-08-07T02:52:22;101368.332;;;;
44734;BME280;30462;52.446;-1.930;2022-08-07T02:53:20;101369.6367;;;;
44734;BME280;30462;52.446;-1.930;2022-08-07T02:54:18;101370.6328;;;;
44734;BME280;30462;52.446;-1.930;2022-08-07T02:55:20;101371.6797;;;;
44734;BME280;30462;52.446;-1.930;2022-08-07T02:56:20;101372.8867;;;;
44734;BME280;30462;52.446;-1.930;2022-08-07T02:57:17;101371.8359;;;;
44734;BME280;30462;52.446;-1.930;2022-08-07T02:58:18;101369.3711;;;;
44734;BME280;30462;52.446;-1.930;2022-08-07T02:59:19;101369.9531;;;;
44734;BME280;30462;52.446;-1.930;2022-08-07T03:00:18;101368.9453;;;;
44734;BME280;30462;52.446;-1.930;2022-08-07T03:01:19;101370.875;;;;
44734;BME280;30462;52.446;-1.930;2022-08-07T03:02:18;101369.9414;;;;
44734;BME280;30462;52.446;-1.930;2022-08-07T03:03:18;101368.5586;;;;
44734;BME280;30462;52.446;-1.930;2022-08-07T03:04:18;101369.8086;;;;
44734;BME280;30462;52.446;-1.930;2022-08-07T03:05:18;101370.5313;;;;
44734;BME280;30462;52.446;-1.930;2022-08-07T03:06:18;101372.4258;;;;
44734;BME280;30462;52.446;-1.930;2022-08-07T03:07:18;101370.8438;;;;
44734;BME280;30462;52.446;-1.930;2022-08-07T03:08:18;101370.5156;;;;
44734;BME280;30462;52.446;-1.930;2022-08-07T03:09:18;101365.9453;;;;
44734;BME280;30462;52.446;-1.930;2022-08-07T03:10:18;101374.0352;;;;
44734;BME280;30462;52.446;-1.930;2022-08-07T03:11:18;101370.7969;;;;
44734;BME280;30462;52.446;-1.930;2022-08-07T03:12:18;101373.2734;;;;
44734;BME280;30462;52.446;-1.930;2022-08-07T03:13:18;101371.2383;;;;
44734;BME280;30462;52.446;-1.930;2022-08-07T03:14:17;101371.3164;;;;
44734;BME280;30462;52.446;-1.930;2022-08-07T03:15:18;101372.9258;;;;
44734;BME280;30462;52.446;-1.930;2022-08-07T03:16:18;101371.707;;;;
44734;BME280;30462;52.446;-1.930;2022-08-07T03:17:18;101371.8125;;;;
44734;BME280;30462;52.446;-1.930;2022-08-07T03:18:18;101368.9883;;;;
44734;BME280;30462;52.446;-1.930;2022-08-07T03:19:17;101368.668;;;;
44734;BME280;30462;52.446;-1.930;2022-08-07T03:20:18;101367.2695;;;;
44734;BME280;30462;52.446;-1.930;2022-08-07T03:21:18;101361.7031;;;;
44734;BME280;30462;52.446;-1.930;2022-08-07T03:22:18;101363.0195;;;;
44734;BME280;30462;52.446;-1.930;2022-08-07T03:23:18;101360.7188;;;;
44734;BME280;30462;52.446;-1.930;2022-08-07T03:24:18;101355.6992;;;;
44734;BME280;30462;52.446;-1.930;2022-08-07T03:25:18;101356.375;;;;
44734;BME280;30462;52.446;-1.930;2022-08-07T03:26:18;101356.5938;;;;
44734;BME280;30462;52.446;-1.930;2022-08-07T03:27:18;101355.1289;;;;
44734;BME280;30462;52.446;-1.930;2022-08-07T03:28:20;101352.3281;;;;
44734;BME280;30462;52.446;-1.930;2022-08-07T03:29:19;101352.5;;;;
44734;BME280;30462;52.446;-1.930;2022-08-07T03:30:17;101353.9336;;;;
44734;BME280;30462;52.446;-1.930;2022-08-07T03:31:18;101353.9531;;;;
44734;BME280;30462;52.446;-1.930;2022-08-07T03:32:19;101354.3242;;;;
44734;BME280;30462;52.446;-1.930;2022-08-07T03:33:18;101354.3164;;;;
44734;BME280;30462;52.446;-1.930;2022-08-07T03:34:18;101353.5078;;;;
44734;BME280;30462;52.446;-1.930;2022-08-07T03:35:23;101356.2188;;;;
44734;BME280;30462;52.446;-1.930;2022-08-07T03:36:18;101358.1836;;;;
44734;BME280;30462;52.446;-1.930;2022-08-07T03:37:18;101358.8516;;;;
44734;BME280;30462;52.446;-1.930;2022-08-07T03:38:18;101356.3242;;;;
44734;BME280;30462;52.446;-1.930;2022-08-07T03:39:18;101357.1289;;;;
44734;BME280;30462;52.446;-1.930;2022-08-07T03:40:18;101352.8008;;;;
44734;BME280;30462;52.446;-1.930;2022-08-07T03:41:18;101352.9219;;;;
44734;BME280;30462;52.446;-1.930;2022-08-07T03:42:18;101355.5508;;;;
44734;BME280;30462;52.446;-1.930;2022-08-07T03:43:18;101356.1406;;;;
44734;BME280;30462;52.446;-1.930;2022-08-07T03:44:17;101356.2539;;;;
44734;BME280;30462;52.446;-1.930;2022-08-07T03:45:18;101352.6133;;;;
44734;BME280;30462;52.446;-1.930;2022-08-07T03:46:18;101354.7578;;;;
44734;BME280;30462;52.446;-1.930;2022-08-07T03:47:18;101351.2344;;;;
44734;BME280;30462;52.446;-1.930;2022-08-07T03:48:18;101354.8516;;;;
44734;BME280;30462;52.446;-1.930;2022-08-07T03:49:18;101349.3281;;;;
44734;BME280;30462;52.446;-1.930;2022-08-07T03:50:18;101349.4414;;;;
44734;BME280;30462;52.446;-1.930;2022-08-07T03:51:19;101348.207;;;;
44734;BME280;30462;52.446;-1.930;2022-08-07T03:52:19;101348.6094;;;;
44734;BME280;30462;52.446;-1.930;2022-08-07T03:53:18;101345.2148;;;;
44734;BME280;30462;52.446;-1.930;2022-08-07T03:54:17;101346.1367;;;;
44734;BME280;30462;52.446;-1.930;2022-08-07T03:55:18;101346.1758;;;;
44734;BME280;30462;52.446;-1.930;2022-08-07T03:56:18;101345.0938;;;;
44734;BME280;30462;52.446;-1.930;2022-08-07T03:57:18;101345.0781;;;;
44734;BME280;30462;52.446;-1.930;2022-08-07T03:58:19;101346.2773;;;;
44734;BME280;30462;52.446;-1.930;2022-08-07T03:59:18;101343.8516;;;;
44734;BME280;30462;52.446;-1.930;2022-08-07T04:00:18;101343.0781;;;;
44734;BME280;30462;52.446;-1.930;2022-08-07T04:01:18;101343.3242;;;;
44734;BME280;30462;52.446;-1.930;2022-08-07T04:02:18;101342.6445;;;;
44734;BME280;30462;52.446;-1.930;2022-08-07T04:03:18;101345.418;;;;
44734;BME280;30462;52.446;-1.930;2022-08-07T04:04:18;101343.1211;;;;
44734;BME280;30462;52.446;-1.930;2022-08-07T04:05:19;101343.6758;;;;
44734;BME280;30462;52.446;-1.930;2022-08-07T04:06:17;101343.418;;;;
44734;BME280;30462;52.446;-1.930;2022-08-07T04:07:18;101339.1914;;;;
44734;BME280;30462;52.446;-1.930;2022-08-07T04:08:18;101336.7695;;;;
44734;BME280;30462;52.446;-1.930;2022-08-07T04:09:18;101337.7695;;;;
44734;BME280;30462;52.446;-1.930;2022-08-07T04:10:17;101334.4219;;;;
44734;BME280;30462;52.446;-1.930;2022-08-07T04:11:18;101337.9766;;;;
44734;BME280;30462;52.446;-1.930;2022-08-07T04:12:18;101332.5859;;;;
44734;BME280;30462;52.446;-1.930;2022-08-07T04:13:20;101338.9648;;;;
44734;BME280;30462;52.446;-1.930;2022-08-07T04:14:18;101339.0664;;;;
44734;BME280;30462;52.446;-1.930;2022-08-07T04:15:17;101336.6055;;;;
44734;BME280;30462;52.446;-1.930;2022-08-07T04:16:19;101339.0352;;;;
44734;BME280;30462;52.446;-1.930;2022-08-07T04:17:18;101338.5859;;;;
44734;BME280;30462;52.446;-1.930;2022-08-07T04:18:21;101335.0938;;;;
44734;BME280;30462;52.446;-1.930;2022-08-07T04:19:19;101337.7031;;;;
44734;BME280;30462;52.446;-1.930;2022-08-07T04:20:18;101338.5156;;;;
44734;BME280;30462;52.446;-1.930;2022-08-07T04:21:18;101337.0938;;;;
44734;BME280;30462;52.446;-1.930;2022-08-07T04:22:18;101336.0313;;;;
44734;BME280;30462;52.446;-1.930;2022-08-07T04:23:18;101339.332;;;;
44734;BME280;30462;52.446;-1.930;2022-08-07T04:24:21;101342.0898;;;;
44734;BME280;30462;52.446;-1.930;2022-08-07T04:25:18;101338.0117;;;;
44734;BME280;30462;52.446;-1.930;2022-08-07T04:26:18;101338.8945;;;;
44734;BME280;30462;52.446;-1.930;2022-08-07T04:27:18;101339.2266;;;;
44734;BME280;30462;52.446;-1.930;2022-08-07T04:28:18;101337.6367;;;;
44734;BME280;30462;52.446;-1.930;2022-08-07T04:29:18;101337.7695;;;;
44734;BME280;30462;52.446;-1.930;2022-08-07T04:30:18;101336.0391;;;;
44734;BME280;30462;52.446;-1.930;2022-08-07T04:31:18;101334.4414;;;;
44734;BME280;30462;52.446;-1.930;2022-08-07T04:32:18;101333.3398;;;;
44734;BME280;30462;52.446;-1.930;2022-08-07T04:33:18;101334.2383;;;;
44734;BME280;30462;52.446;-1.930;2022-08-07T04:34:20;101335.0547;;;;
44734;BME280;30462;52.446;-1.930;2022-08-07T04:35:18;101333.0742;;;;
44734;BME280;30462;52.446;-1.930;2022-08-07T04:36:18;101331.7031;;;;
44734;BME280;30462;52.446;-1.930;2022-08-07T04:37:18;101335.3906;;;;
44734;BME280;30462;52.446;-1.930;2022-08-07T04:38:18;101335.875;;;;
44734;BME280;30462;52.446;-1.930;2022-08-07T04:39:18;101338.6758;;;;
44734;BME280;30462;52.446;-1.930;2022-08-07T04:40:18;101336.9141;;;;
44734;BME280;30462;52.446;-1.930;2022-08-07T04:41:18;101335.6484;;;;
44734;BME280;30462;52.446;-1.930;2022-08-07T04:42:18;101334.75;;;;
44734;BME280;30462;52.446;-1.930;2022-08-07T04:43:18;101336.7891;;;;
44734;BME280;30462;52.446;-1.930;2022-08-07T04:44:18;101337.2266;;;;
44734;BME280;30462;52.446;-1.930;2022-08-07T04:45:18;101339.0273;;;;
44734;BME280;30462;52.446;-1.930;2022-08-07T04:46:22;101342.4258;;;;
44734;BME280;30462;52.446;-1.930;2022-08-07T04:47:22;101340.1055;;;;
44734;BME280;30462;52.446;-1.930;2022-08-07T04:48:22;101343.793;;;;
44734;BME280;30462;52.446;-1.930;2022-08-07T04:49:22;101339.2734;;;;
44734;BME280;30462;52.446;-1.930;2022-08-07T04:50:25;101338.168;;;;
44734;BME280;30462;52.446;-1.930;2022-08-07T04:51:22;101338.2148;;;;
44734;BME280;30462;52.446;-1.930;2022-08-07T04:52:25;101335.1289;;;;
44734;BME280;30462;52.446;-1.930;2022-08-07T04:53:19;101339.3125;;;;
44734;BME280;30462;52.446;-1.930;2022-08-07T04:54:22;101340.5234;;;;
44734;BME280;30462;52.446;-1.930;2022-08-07T04:55:22;101339.9805;;;;
44734;BME280;30462;52.446;-1.930;2022-08-07T04:56:20;101341.3281;;;;
44734;BME280;30462;52.446;-1.930;2022-08-07T04:57:23;101342.2695;;;;
44734;BME280;30462;52.446;-1.930;2022-08-07T04:58:19;101343.0703;;;;
44734;BME280;30462;52.446;-1.930;2022-08-07T04:59:20;101343.0547;;;;
44734;BME280;30462;52.446;-1.930;2022-08-07T05:00:24;101338.8438;;;;
44734;BME280;30462;52.446;-1.930;2022-08-07T05:01:20;101343.9648;;;;
44734;BME280;30462;52.446;-1.930;2022-08-07T05:02:23;101333.5703;;;;
44734;BME280;30462;52.446;-1.930;2022-08-07T05:03:21;101339.3086;;;;
44734;BME280;30462;52.446;-1.930;2022-08-07T05:04:21;101340.25;;;;
44734;BME280;30462;52.446;-1.930;2022-08-07T05:05:19;101343.1875;;;;
44734;BME280;30462;52.446;-1.930;2022-08-07T05:06:21;101343.8633;;;;
44734;BME280;30462;52.446;-1.930;2022-08-07T05:07:19;101342.8828;;;;
44734;BME280;30462;52.446;-1.930;2022-08-07T05:08:25;101342.8828;;;;
44734;BME280;30462;52.446;-1.930;2022-08-07T05:09:25;101345.375;;;;
44734;BME280;30462;52.446;-1.930;2022-08-07T05:10:18;101347.8047;;;;
44734;BME280;30462;52.446;-1.930;2022-08-07T05:11:22;101346.1484;;;;
44734;BME280;30462;52.446;-1.930;2022-08-07T05:12:23;101349.5313;;;;
44734;BME280;30462;52.446;-1.930;2022-08-07T05:13:24;101350.1523;;;;
44734;BME280;30462;52.446;-1.930;2022-08-07T05:14:24;101350.1523;;;;
44734;BME280;30462;52.446;-1.930;2022-08-07T05:15:23;101351.5;;;;
44734;BME280;30462;52.446;-1.930;2022-08-07T05:16:18;101352.0586;;;;
44734;BME280;30462;52.446;-1.930;2022-08-07T05:17:18;101353.3086;;;;
44734;BME280;30462;52.446;-1.930;2022-08-07T05:18:19;101355.6797;;;;
44734;BME280;30462;52.446;-1.930;2022-08-07T05:19:19;101356.3008;;;;
44734;BME280;30462;52.446;-1.930;2022-08-07T05:20:19;101356.3789;;;;
44734;BME280;30462;52.446;-1.930;2022-08-07T05:21:19;101355.9258;;;;
44734;BME280;30462;52.446;-1.930;2022-08-07T05:22:19;101359.332;;;;
44734;BME280;30462;52.446;-1.930;2022-08-07T05:23:19;101358.9883;;;;
44734;BME280;30462;52.446;-1.930;2022-08-07T05:24:18;101358.8203;;;;
44734;BME280;30462;52.446;-1.930;2022-08-07T05:25:19;101360.207;;;;
44734;BME280;30462;52.446;-1.930;2022-08-07T05:26:23;101360.207;;;;
44734;BME280;30462;52.446;-1.930;2022-08-07T05:27:19;101364.4609;;;;
44734;BME280;30462;52.446;-1.930;2022-08-07T05:28:18;101367.5469;;;;
44734;BME280;30462;52.446;-1.930;2022-08-07T05:29:18;101368.8984;;;;
44734;BME280;30462;52.446;-1.930;2022-08-07T05:30:18;101370.5273;;;;
44734;BME280;30462;52.446;-1.930;2022-08-07T05:31:18;101369.3477;;;;
44734;BME280;30462;52.446;-1.930;2022-08-07T05:32:18;101365.957;;;;
44734;BME280;30462;52.446;-1.930;2022-08-07T05:33:18;101370.9531;;;;
44734;BME280;30462;52.446;-1.930;2022-08-07T05:34:18;101369.3008;;;;
44734;BME280;30462;52.446;-1.930;2022-08-07T05:35:18;101368.2617;;;;
44734;BME280;30462;52.446;-1.930;2022-08-07T05:36:18;101368.4023;;;;
44734;BME280;30462;52.446;-1.930;2022-08-07T05:37:17;101365.8438;;;;
44734;BME280;30462;52.446;-1.930;2022-08-07T05:38:18;101369.3125;;;;
44734;BME280;30462;52.446;-1.930;2022-08-07T05:39:18;101366.3086;;;;
44734;BME280;30462;52.446;-1.930;2022-08-07T05:40:18;101370.0625;;;;
44734;BME280;30462;52.446;-1.930;2022-08-07T05:41:18;101367.9766;;;;
44734;BME280;30462;52.446;-1.930;2022-08-07T05:42:18;101367.2227;;;;
44734;BME280;30462;52.446;-1.930;2022-08-07T05:43:18;101371.2461;;;;
44734;BME280;30462;52.446;-1.930;2022-08-07T05:44:18;101368.9883;;;;
44734;BME280;30462;52.446;-1.930;2022-08-07T05:45:18;101372.4219;;;;
44734;BME280;30462;52.446;-1.930;2022-08-07T05:46:18;101376.2852;;;;